createdAt,value
2023-04-24T00:00:26.505Z,3.72
2023-04-24T00:02:53.240Z,2.70
2023-04-24T00:05:19.904Z,3.85
2023-04-24T00:07:46.436Z,5.75
2023-04-24T00:10:14.199Z,4.78
2023-04-24T00:12:42.386Z,5.90
2023-04-24T00:15:09.552Z,2.33
2023-04-24T00:17:36.265Z,3.33
2023-04-24T00:20:05.644Z,3.95
2023-04-24T00:22:32.382Z,3.78
2023-04-24T00:24:59.152Z,2.83
2023-04-24T00:27:26.869Z,4.55
2023-04-24T00:29:53.964Z,4.65
2023-04-24T00:32:20.711Z,2.33
2023-04-24T00:34:48.896Z,2.75
2023-04-24T00:37:16.217Z,2.92
2023-04-24T00:39:45.291Z,3.80
2023-04-24T00:42:12.319Z,4.97
2023-04-24T00:44:39.627Z,4.50
2023-04-24T00:47:06.087Z,2.88
2023-04-24T00:49:32.607Z,4.13
2023-04-24T00:52:00.390Z,4.18
2023-04-24T00:54:26.827Z,3.00
2023-04-24T00:56:53.700Z,4.30
2023-04-24T00:59:20.464Z,2.92
2023-04-24T01:01:47.326Z,5.13
2023-04-24T01:04:15.357Z,5.90
2023-04-24T01:06:43.189Z,4.25
2023-04-24T01:09:10.308Z,2.80
2023-04-24T01:11:37.567Z,2.10
2023-04-24T01:14:05.198Z,3.55
2023-04-24T01:16:31.863Z,2.85
2023-04-24T01:18:59.563Z,4.40
2023-04-24T01:21:29.053Z,5.13
2023-04-24T01:23:57.667Z,4.15
2023-04-24T01:26:24.257Z,4.75
2023-04-24T01:28:53.299Z,7.43
2023-04-24T01:31:19.814Z,4.55
2023-04-24T01:33:46.937Z,2.83
2023-04-24T01:36:14.492Z,2.33
2023-04-24T01:38:41.024Z,3.45
2023-04-24T01:41:09.199Z,1.92
2023-04-24T01:43:36.885Z,2.95
2023-04-24T01:46:04.645Z,5.28
2023-04-24T01:48:31.796Z,4.40
2023-04-24T01:50:58.588Z,5.82
2023-04-24T01:53:24.950Z,5.72
2023-04-24T01:55:51.520Z,4.32
2023-04-24T01:58:18.250Z,6.28
2023-04-24T02:00:44.805Z,3.22
2023-04-24T02:03:11.524Z,5.18
2023-04-24T02:05:38.293Z,2.63
2023-04-24T02:08:04.923Z,4.40
2023-04-24T02:10:31.362Z,3.15
2023-04-24T02:13:00.831Z,5.20
2023-04-24T02:15:27.356Z,5.45
2023-04-24T02:17:53.943Z,3.58
2023-04-24T02:20:20.908Z,3.45
2023-04-24T02:22:47.623Z,5.03
2023-04-24T02:25:14.810Z,3.25
2023-04-24T02:27:41.321Z,3.72
2023-04-24T02:30:08.859Z,4.18
2023-04-24T02:32:35.520Z,4.97
2023-04-24T02:35:02.590Z,2.63
2023-04-24T02:37:28.958Z,3.08
2023-04-24T02:39:55.851Z,6.25
2023-04-24T02:42:22.273Z,4.63
2023-04-24T02:44:48.995Z,2.65
2023-04-24T02:47:15.355Z,7.25
2023-04-24T02:49:42.116Z,3.88
2023-04-24T02:52:09.404Z,8.50
2023-04-24T02:54:36.143Z,8.60
2023-04-24T02:57:02.609Z,6.32
2023-04-24T02:59:30.382Z,2.63
2023-04-24T03:01:57.455Z,2.67
2023-04-24T03:04:24.077Z,6.88
2023-04-24T03:06:53.956Z,2.00
2023-04-24T03:09:20.764Z,2.08
2023-04-24T03:11:47.890Z,3.88
2023-04-24T03:14:14.267Z,3.20
2023-04-24T03:16:40.821Z,2.05
2023-04-24T03:19:07.757Z,2.65
2023-04-24T03:21:41.864Z,1.77
2023-04-24T03:24:09.426Z,3.05
2023-04-24T03:26:36.824Z,3.17
2023-04-24T03:29:30.308Z,1.92
2023-04-24T03:31:57.750Z,2.70
2023-04-24T03:34:24.650Z,2.15
2023-04-24T03:36:51.451Z,4.20
2023-04-24T03:39:17.929Z,2.75
2023-04-24T03:41:51.436Z,2.97
2023-04-24T03:44:23.913Z,2.10
2023-04-24T03:46:50.803Z,3.30
2023-04-24T03:49:19.854Z,3.67
2023-04-24T03:51:48.234Z,1.88
2023-04-24T03:54:20.363Z,3.08
2023-04-24T03:56:47.350Z,4.68
2023-04-24T03:59:14.799Z,5.07
2023-04-24T04:01:44.845Z,3.22
2023-04-24T04:04:14.816Z,2.83
2023-04-24T04:06:43.303Z,4.80
2023-04-24T04:09:10.276Z,2.67
2023-04-24T04:11:37.115Z,2.72
2023-04-24T04:14:04.574Z,3.42
2023-04-24T04:16:33.902Z,3.20
2023-04-24T04:19:04.156Z,3.00
2023-04-24T04:21:32.444Z,5.22
2023-04-24T04:24:25.335Z,2.53
2023-04-24T04:26:53.226Z,2.28
2023-04-24T04:29:24.946Z,2.05
2023-04-24T04:31:51.867Z,6.35
2023-04-24T04:34:19.404Z,3.08
2023-04-24T04:36:47.383Z,2.60
2023-04-24T04:39:36.719Z,7.68
2023-04-24T04:42:07.893Z,2.65
2023-04-24T04:44:41.993Z,2.50
2023-04-24T04:47:12.693Z,3.55
2023-04-24T04:49:46.507Z,2.95
2023-04-24T04:52:20.336Z,2.63
2023-04-24T04:54:51.406Z,2.55
2023-04-24T04:57:18.343Z,3.25
2023-04-24T04:59:45.541Z,2.88
2023-04-24T05:02:20.129Z,2.22
2023-04-24T05:04:47.095Z,2.45
2023-04-24T05:07:14.015Z,4.60
2023-04-24T05:09:46.207Z,2.10
2023-04-24T05:12:14.675Z,2.42
2023-04-24T05:14:49.012Z,3.20
2023-04-24T05:17:16.079Z,3.00
2023-04-24T05:19:43.462Z,4.05
2023-04-24T05:22:11.621Z,2.47
2023-04-24T05:24:47.386Z,2.22
2023-04-24T05:27:24.285Z,1.95
2023-04-24T05:29:50.742Z,3.33
2023-04-24T05:32:18.095Z,3.70
2023-04-24T05:34:45.157Z,2.78
2023-04-24T05:37:12.542Z,2.80
2023-04-24T05:39:39.191Z,5.50
2023-04-24T05:42:06.524Z,4.60
2023-04-24T05:44:33.230Z,2.95
2023-04-24T05:47:01.320Z,4.07
2023-04-24T05:49:27.937Z,3.08
2023-04-24T05:51:56.580Z,5.28
2023-04-24T05:54:23.355Z,3.83
2023-04-24T05:56:51.234Z,4.00
2023-04-24T05:59:27.787Z,4.72
2023-04-24T06:01:54.236Z,7.45
2023-04-24T06:04:22.760Z,3.63
2023-04-24T06:06:56.633Z,4.93
2023-04-24T06:09:23.801Z,4.55
2023-04-24T06:11:50.875Z,7.53
2023-04-24T06:14:17.965Z,5.28
2023-04-24T06:17:20.487Z,6.03
2023-04-24T06:19:48.800Z,5.55
2023-04-24T06:22:16.552Z,4.95
2023-04-24T06:24:42.921Z,6.68
2023-04-24T06:27:11.342Z,6.45
2023-04-24T06:29:41.705Z,4.88
2023-04-24T06:32:08.775Z,5.05
2023-04-24T06:34:36.560Z,6.38
2023-04-24T06:37:03.175Z,11.00
2023-04-24T06:39:29.772Z,5.40
2023-04-24T06:41:57.121Z,6.32
2023-04-24T06:44:26.107Z,4.60
2023-04-24T06:46:53.490Z,4.68
2023-04-24T06:49:20.065Z,4.00
2023-04-24T06:51:47.070Z,4.43
2023-04-24T06:54:13.734Z,6.30
2023-04-24T06:56:40.524Z,4.63
2023-04-24T06:59:06.898Z,6.13
2023-04-24T07:01:33.285Z,3.67
2023-04-24T07:04:03.191Z,3.78
2023-04-24T07:06:32.976Z,4.22
2023-04-24T07:09:00.722Z,3.78
2023-04-24T07:11:30.408Z,6.25
2023-04-24T07:13:56.902Z,3.00
2023-04-24T07:16:23.682Z,2.55
2023-04-24T07:18:50.494Z,2.92
2023-04-24T07:21:17.097Z,2.97
2023-04-24T07:23:44.568Z,7.60
2023-04-24T07:26:11.243Z,2.72
2023-04-24T07:28:37.781Z,3.67
2023-04-24T07:31:04.569Z,2.78
2023-04-24T07:33:31.573Z,13.23
2023-04-24T07:35:59.469Z,3.92
2023-04-24T07:38:27.161Z,4.03
2023-04-24T07:40:53.875Z,4.22
2023-04-24T07:43:21.282Z,2.67
2023-04-24T07:45:47.895Z,4.18
2023-04-24T07:48:17.311Z,2.90
2023-04-24T07:50:43.741Z,2.58
2023-04-24T07:53:10.110Z,4.38
2023-04-24T07:55:36.899Z,2.95
2023-04-24T07:58:03.720Z,2.90
2023-04-24T08:00:30.554Z,3.40
2023-04-24T08:02:57.260Z,7.45
2023-04-24T08:05:24.532Z,3.03
2023-04-24T08:07:52.150Z,3.00
2023-04-24T08:10:18.698Z,2.80
2023-04-24T08:12:45.310Z,3.15
2023-04-24T08:15:12.477Z,3.83
2023-04-24T08:17:41.272Z,4.85
2023-04-24T08:20:15.141Z,3.35
2023-04-24T08:22:41.993Z,4.60
2023-04-24T08:25:09.174Z,7.10
2023-04-24T08:27:36.169Z,2.83
2023-04-24T08:30:02.713Z,4.40
2023-04-24T08:32:30.239Z,2.70
2023-04-24T08:34:57.762Z,4.20
2023-04-24T08:37:24.643Z,4.30
2023-04-24T08:39:51.550Z,3.58
2023-04-24T08:42:21.788Z,7.72
2023-04-24T08:44:50.647Z,3.20
2023-04-24T08:47:17.444Z,4.88
2023-04-24T08:49:46.618Z,3.95
2023-04-24T08:52:14.207Z,3.17
2023-04-24T08:54:41.219Z,4.20
2023-04-24T08:57:12.204Z,2.90
2023-04-24T08:59:38.992Z,3.20
2023-04-24T09:02:06.136Z,4.00
2023-04-24T09:04:35.019Z,4.38
2023-04-24T09:07:01.995Z,4.85
2023-04-24T09:09:30.507Z,4.70
2023-04-24T09:11:58.248Z,4.90
2023-04-24T09:14:24.735Z,2.88
2023-04-24T09:16:51.974Z,2.97
2023-04-24T09:19:18.891Z,3.53
2023-04-24T09:21:46.998Z,2.72
2023-04-24T09:24:21.925Z,5.93
2023-04-24T09:26:48.536Z,5.00
2023-04-24T09:29:18.752Z,3.38
2023-04-24T09:31:46.405Z,2.83
2023-04-24T09:34:13.169Z,3.65
2023-04-24T09:36:40.642Z,2.83
2023-04-24T09:39:13.664Z,3.30
2023-04-24T09:41:46.496Z,3.30
2023-04-24T09:44:19.262Z,2.88
2023-04-24T09:46:50.272Z,2.33
2023-04-24T09:49:17.492Z,3.70
2023-04-24T09:51:44.152Z,2.40
2023-04-24T09:54:18.411Z,2.80
2023-04-24T09:56:47.684Z,2.95
2023-04-24T09:59:17.686Z,2.78
2023-04-24T10:01:46.052Z,3.17
2023-04-24T10:04:25.985Z,2.35
2023-04-24T10:06:53.521Z,3.03
2023-04-24T10:09:21.230Z,2.63
2023-04-24T10:11:50.432Z,2.53
2023-04-24T10:14:19.205Z,2.88
2023-04-24T10:16:48.067Z,2.75
2023-04-24T10:19:15.905Z,3.17
2023-04-24T10:21:49.701Z,2.90
2023-04-24T10:24:17.748Z,3.17
2023-04-24T10:26:45.738Z,4.07
2023-04-24T10:29:14.535Z,4.18
2023-04-24T10:31:41.703Z,2.95
2023-04-24T10:34:12.033Z,3.42
2023-04-24T10:36:42.405Z,4.30
2023-04-24T10:39:11.763Z,2.63
2023-04-24T10:41:38.719Z,2.60
2023-04-24T10:44:15.658Z,2.05
2023-04-24T10:46:53.500Z,3.35
2023-04-24T10:49:28.644Z,2.38
2023-04-24T10:51:55.312Z,1.35
2023-04-24T10:54:27.782Z,1.30
2023-04-24T10:56:54.818Z,1.85
2023-04-24T10:59:36.225Z,1.30
2023-04-24T11:02:02.577Z,1.38
2023-04-24T11:04:33.003Z,1.20
2023-04-24T11:06:59.713Z,1.65
2023-04-24T11:09:31.061Z,1.30
2023-04-24T11:12:04.177Z,1.33
2023-04-24T11:14:30.791Z,1.40
2023-04-24T11:16:57.852Z,1.75
2023-04-24T11:19:28.963Z,1.25
2023-04-24T11:22:01.564Z,1.98
2023-04-24T11:24:32.469Z,2.28
2023-04-24T11:27:00.312Z,2.42
2023-04-24T11:29:42.186Z,1.98
2023-04-24T11:32:27.105Z,1.90
2023-04-24T11:34:54.719Z,1.85
2023-04-24T11:37:21.459Z,2.03
2023-04-24T11:39:47.942Z,2.38
2023-04-24T11:42:17.375Z,1.38
2023-04-24T11:44:45.082Z,1.98
2023-04-24T11:47:12.208Z,2.22
2023-04-24T11:49:38.783Z,2.65
2023-04-24T11:52:05.990Z,3.58
2023-04-24T11:54:32.445Z,1.95
2023-04-24T11:56:59.464Z,2.38
2023-04-24T11:59:27.323Z,1.90
2023-04-24T12:01:53.916Z,2.10
2023-04-24T12:04:20.796Z,2.40
2023-04-24T12:07:00.001Z,5.05
2023-04-24T12:09:27.415Z,2.60
2023-04-24T12:11:57.880Z,2.67
2023-04-24T12:14:25.219Z,1.92
2023-04-24T12:16:52.426Z,2.30
2023-04-24T12:19:22.428Z,3.05
2023-04-24T12:22:01.926Z,3.20
2023-04-24T12:24:28.453Z,3.10
2023-04-24T12:26:55.754Z,3.20
2023-04-24T12:29:22.496Z,3.70
2023-04-24T12:31:49.132Z,3.60
2023-04-24T12:34:19.332Z,5.53
2023-04-24T12:36:45.847Z,4.07
2023-04-24T12:39:16.400Z,2.88
2023-04-24T12:41:58.438Z,4.05
2023-04-24T12:44:35.517Z,5.60
2023-04-24T12:47:02.523Z,5.15
2023-04-24T12:49:29.415Z,6.45
2023-04-24T12:51:56.127Z,4.38
2023-04-24T12:54:22.926Z,5.25
2023-04-24T12:56:50.453Z,4.57
2023-04-24T12:59:16.876Z,3.40
2023-04-24T13:01:45.659Z,4.25
2023-04-24T13:04:12.770Z,3.85
2023-04-24T13:06:39.861Z,4.25
2023-04-24T13:09:06.548Z,4.07
2023-04-24T13:11:33.188Z,5.40
2023-04-24T13:14:01.136Z,4.30
2023-04-24T13:16:27.745Z,3.38
2023-04-24T13:18:56.642Z,6.22
2023-04-24T13:21:23.323Z,3.28
2023-04-24T13:23:50.319Z,3.92
2023-04-24T13:26:17.073Z,3.40
2023-04-24T13:28:43.474Z,3.58
2023-04-24T13:31:10.229Z,7.35
2023-04-24T13:33:37.067Z,5.78
2023-04-24T13:36:03.590Z,6.35
2023-04-24T13:38:29.943Z,4.25
2023-04-24T13:40:56.273Z,4.25
2023-04-24T13:43:22.948Z,4.50
2023-04-24T13:45:49.679Z,5.53
2023-04-24T13:48:17.221Z,5.82
2023-04-24T13:50:44.034Z,6.03
2023-04-24T13:53:10.798Z,3.88
2023-04-24T13:55:37.260Z,3.63
2023-04-24T13:58:03.692Z,6.15
2023-04-24T14:00:30.326Z,5.10
2023-04-24T14:02:58.220Z,4.20
2023-04-24T14:05:24.905Z,4.50
2023-04-24T14:07:51.879Z,4.70
2023-04-24T14:10:18.429Z,4.70
2023-04-24T14:12:44.987Z,4.72
2023-04-24T14:15:11.608Z,4.22
2023-04-24T14:17:37.966Z,4.63
2023-04-24T14:20:06.634Z,5.43
2023-04-24T14:22:33.262Z,4.78
2023-04-24T14:24:59.854Z,9.10
2023-04-24T14:27:27.122Z,5.13
2023-04-24T14:29:53.459Z,4.55
2023-04-24T14:32:20.149Z,4.75
2023-04-24T14:34:46.690Z,5.10
2023-04-24T14:37:13.857Z,4.10
2023-04-24T14:39:41.024Z,5.78
2023-04-24T14:42:08.339Z,5.38
2023-04-24T14:44:42.130Z,4.85
2023-04-24T14:47:08.829Z,4.50
2023-04-24T14:49:35.911Z,4.57
2023-04-24T14:52:04.001Z,4.85
2023-04-24T14:54:30.874Z,5.43
2023-04-24T14:57:01.756Z,7.72
2023-04-24T14:59:32.397Z,3.58
2023-04-24T15:02:15.021Z,3.90
2023-04-24T15:04:42.876Z,4.85
2023-04-24T15:07:10.748Z,4.90
2023-04-24T15:09:37.407Z,4.40
2023-04-24T15:12:03.925Z,5.68
2023-04-24T15:14:31.309Z,4.28
2023-04-24T15:16:57.765Z,3.97
2023-04-24T15:19:26.110Z,5.47
2023-04-24T15:21:55.310Z,6.57
2023-04-24T15:24:22.078Z,5.60
2023-04-24T15:26:48.421Z,7.30
2023-04-24T15:29:14.798Z,5.35
2023-04-24T15:31:42.744Z,7.00
2023-04-24T15:34:10.000Z,6.45
2023-04-24T15:36:37.340Z,6.38
2023-04-24T15:39:05.694Z,4.40
2023-04-24T15:41:34.950Z,4.93
2023-04-24T15:44:01.281Z,5.32
2023-04-24T15:46:27.893Z,6.22
2023-04-24T15:48:54.354Z,4.25
2023-04-24T15:51:20.818Z,4.53
2023-04-24T15:53:47.717Z,6.38
2023-04-24T15:56:14.412Z,3.53
2023-04-24T15:58:41.135Z,4.22
2023-04-24T16:01:08.233Z,5.32
2023-04-24T16:03:34.779Z,3.90
2023-04-24T16:06:01.366Z,6.50
2023-04-24T16:08:27.788Z,6.97
2023-04-24T16:10:54.505Z,6.22
2023-04-24T16:13:21.075Z,6.05
2023-04-24T16:15:48.343Z,4.72
2023-04-24T16:18:14.851Z,4.05
2023-04-24T16:20:41.260Z,5.53
2023-04-24T16:23:09.995Z,5.05
2023-04-24T16:25:36.690Z,6.82
2023-04-24T16:28:05.915Z,3.83
2023-04-24T16:30:32.943Z,4.95
2023-04-24T16:32:59.397Z,5.07
2023-04-24T16:35:25.986Z,5.53
2023-04-24T16:37:52.377Z,7.07
2023-04-24T16:40:19.062Z,8.18
2023-04-24T16:42:47.592Z,4.60
2023-04-24T16:45:14.149Z,5.03
2023-04-24T16:47:40.972Z,4.90
2023-04-24T16:50:07.771Z,6.35
2023-04-24T16:52:36.089Z,5.78
2023-04-24T16:55:02.601Z,5.10
2023-04-24T16:57:28.994Z,5.85
2023-04-24T16:59:55.735Z,5.70
2023-04-24T17:02:22.491Z,4.45
2023-04-24T17:04:49.064Z,5.53
2023-04-24T17:07:15.644Z,4.72
2023-04-24T17:09:42.806Z,5.32
2023-04-24T17:12:13.292Z,4.57
2023-04-24T17:14:39.805Z,4.47
2023-04-24T17:17:06.225Z,4.13
2023-04-24T17:19:32.925Z,5.65
2023-04-24T17:21:59.861Z,5.00
2023-04-24T17:24:26.236Z,5.38
2023-04-24T17:26:54.511Z,5.85
2023-04-24T17:29:22.891Z,5.25
2023-04-24T17:31:49.829Z,6.47
2023-04-24T17:34:16.772Z,5.13
2023-04-24T17:36:44.215Z,5.68
2023-04-24T17:39:10.929Z,5.95
2023-04-24T17:41:38.805Z,4.90
2023-04-24T17:44:05.425Z,4.97
2023-04-24T17:46:32.063Z,5.85
2023-04-24T17:48:58.929Z,4.03
2023-04-24T17:51:27.564Z,6.65
2023-04-24T17:53:54.365Z,6.78
2023-04-24T17:56:21.163Z,5.15
2023-04-24T17:58:48.150Z,7.25
2023-04-24T18:01:15.042Z,8.80
2023-04-24T18:03:43.717Z,7.57
2023-04-24T18:06:10.624Z,9.48
2023-04-24T18:08:37.165Z,14.27
2023-04-24T18:11:03.669Z,12.10
2023-04-24T18:13:30.024Z,8.35
2023-04-24T18:15:56.449Z,7.55
2023-04-24T18:18:24.300Z,4.60
2023-04-24T18:20:50.953Z,4.68
2023-04-24T18:23:17.616Z,4.85
2023-04-24T18:25:44.339Z,5.05
2023-04-24T18:28:13.046Z,5.20
2023-04-24T18:30:39.662Z,6.30
2023-04-24T18:33:06.430Z,5.32
2023-04-24T18:35:33.139Z,6.55
2023-04-24T18:37:59.839Z,6.90
2023-04-24T18:40:29.098Z,4.90
2023-04-24T18:42:56.931Z,5.75
2023-04-24T18:45:23.545Z,5.45
2023-04-24T18:47:50.298Z,7.20
2023-04-24T18:50:16.790Z,7.55
2023-04-24T18:52:43.502Z,6.65
2023-04-24T18:55:11.356Z,5.78
2023-04-24T18:57:38.012Z,5.03
2023-04-24T19:00:04.878Z,6.22
2023-04-24T19:02:32.438Z,4.80
2023-04-24T19:04:59.154Z,5.15
2023-04-24T19:11:06.366Z,4.68
2023-04-24T19:13:33.336Z,7.97
2023-04-24T19:15:59.941Z,4.03
2023-04-24T19:18:27.310Z,4.65
2023-04-24T19:20:55.739Z,5.97
2023-04-24T19:23:22.272Z,4.13
2023-04-24T19:25:48.629Z,5.43
2023-04-24T19:28:15.026Z,4.60
2023-04-24T19:30:41.519Z,7.20
2023-04-24T19:33:07.947Z,8.15
2023-04-24T19:35:34.755Z,6.85
2023-04-24T19:38:01.611Z,6.43
2023-04-24T19:40:29.947Z,5.68
2023-04-24T19:42:56.640Z,5.78
2023-04-24T19:45:23.140Z,6.47
2023-04-24T19:47:49.585Z,6.45
2023-04-24T19:50:17.286Z,5.45
2023-04-24T19:52:44.512Z,7.50
2023-04-24T19:55:11.156Z,6.63
2023-04-24T19:57:38.250Z,7.50
2023-04-24T20:00:06.095Z,6.47
2023-04-24T20:02:34.966Z,6.88
2023-04-24T20:05:02.322Z,5.45
2023-04-24T20:07:28.917Z,6.65
2023-04-24T20:09:55.433Z,6.30
2023-04-24T20:12:21.851Z,5.47
2023-04-24T20:14:48.537Z,5.55
2023-04-24T20:17:15.605Z,6.30
2023-04-24T20:19:42.293Z,6.00
2023-04-24T20:22:13.449Z,6.20
2023-04-24T20:24:40.606Z,6.63
2023-04-24T20:27:07.352Z,8.90
2023-04-24T20:29:33.870Z,7.13
2023-04-24T20:32:00.681Z,7.18
2023-04-24T20:34:27.405Z,9.13
2023-04-24T20:36:56.670Z,6.57
2023-04-24T20:39:23.105Z,7.13
2023-04-24T20:41:49.741Z,8.55
2023-04-24T20:44:16.446Z,7.40
2023-04-24T20:46:43.046Z,7.63
2023-04-24T20:49:09.454Z,7.10
2023-04-24T20:51:36.966Z,7.18
2023-04-24T20:54:04.053Z,6.70
2023-04-24T20:56:31.642Z,7.20
2023-04-24T20:58:58.124Z,8.23
2023-04-24T21:01:24.910Z,7.10
2023-04-24T21:03:53.306Z,9.80
2023-04-24T21:06:20.612Z,11.45
2023-04-24T21:08:47.245Z,10.48
2023-04-24T21:11:13.725Z,9.65
2023-04-24T21:13:40.322Z,9.68
2023-04-24T21:16:09.172Z,11.35
2023-04-24T21:18:40.846Z,8.02
2023-04-24T21:21:09.064Z,8.27
2023-04-24T21:23:36.094Z,9.38
2023-04-24T21:26:05.888Z,8.40
2023-04-24T21:28:32.737Z,8.45
2023-04-24T21:30:59.273Z,8.80
2023-04-24T21:33:25.736Z,9.27
2023-04-24T21:35:52.512Z,8.57
2023-04-24T21:38:23.297Z,8.55
2023-04-24T21:40:52.501Z,9.90
2023-04-24T21:43:20.562Z,8.32
2023-04-24T21:45:48.360Z,8.50
2023-04-24T21:48:14.755Z,10.40
2023-04-24T21:50:41.297Z,8.38
2023-04-24T21:53:07.980Z,9.00
2023-04-24T21:55:34.769Z,9.35
2023-04-24T21:58:02.465Z,10.57
2023-04-24T22:00:28.828Z,13.70
2023-04-24T22:02:55.514Z,8.95
2023-04-24T22:05:22.293Z,10.77
2023-04-24T22:07:50.579Z,9.40
2023-04-24T22:10:19.829Z,10.63
2023-04-24T22:12:46.354Z,11.50
2023-04-24T22:15:13.476Z,9.70
2023-04-24T22:17:40.139Z,11.63
2023-04-24T22:20:07.639Z,11.77
2023-04-24T22:22:34.673Z,11.18
2023-04-24T22:25:01.133Z,11.63
2023-04-24T22:27:28.250Z,9.55
2023-04-24T22:29:54.907Z,11.32
2023-04-24T22:32:21.546Z,11.95
2023-04-24T22:34:47.881Z,11.77
2023-04-24T22:37:14.458Z,10.30
2023-04-24T22:39:41.335Z,10.30
2023-04-24T22:42:08.202Z,12.38
2023-04-24T22:44:35.501Z,9.43
2023-04-24T22:47:06.870Z,10.27
2023-04-24T22:49:34.838Z,8.98
2023-04-24T22:52:02.037Z,8.38
2023-04-24T22:54:29.629Z,8.85
2023-04-24T22:56:56.545Z,8.23
2023-04-24T22:59:23.619Z,9.15
2023-04-24T23:01:50.814Z,8.73
2023-04-24T23:04:17.587Z,7.30
2023-04-24T23:06:44.258Z,7.18
2023-04-24T23:09:10.801Z,7.68
2023-04-24T23:11:37.383Z,7.55
2023-04-24T23:14:03.761Z,9.68
2023-04-24T23:16:33.338Z,9.73
2023-04-24T23:18:59.720Z,9.05
2023-04-24T23:21:27.499Z,8.90
2023-04-24T23:23:54.227Z,8.10
2023-04-24T23:26:20.913Z,8.93
2023-04-24T23:28:47.906Z,11.48
2023-04-24T23:31:14.581Z,8.73
2023-04-24T23:33:41.577Z,10.55
2023-04-24T23:36:08.084Z,9.55
2023-04-24T23:38:43.168Z,10.32
2023-04-24T23:41:16.187Z,11.10
2023-04-24T23:43:42.519Z,11.18
2023-04-24T23:46:09.176Z,10.80
2023-04-24T23:48:37.222Z,12.13
2023-04-24T23:51:04.006Z,12.70
2023-04-24T23:53:30.634Z,12.77
2023-04-24T23:55:57.769Z,11.52
2023-04-24T23:58:24.169Z,11.90
